sensor_id;sensor_type;location;lat;lon;timestamp;pressure;altitude;pressure_sealevel;temperature
82297;BMP280;71899;51.992;8.648;2023-09-30T00:01:21;101053.25;;;13.39
82297;BMP280;71899;51.992;8.648;2023-09-30T00:03:47;101064.59;;;13.40
82297;BMP280;71899;51.992;8.648;2023-09-30T00:06:12;101060.66;;;13.33
82297;BMP280;71899;51.992;8.648;2023-09-30T00:08:38;101062.06;;;13.24
82297;BMP280;71899;51.992;8.648;2023-09-30T00:11:05;101066.63;;;13.21
82297;BMP280;71899;51.992;8.648;2023-09-30T00:13:31;101070.03;;;13.23
82297;BMP280;71899;51.992;8.648;2023-09-30T00:15:57;101061.75;;;13.15
82297;BMP280;71899;51.992;8.648;2023-09-30T00:18:22;101067.03;;;12.99
82297;BMP280;71899;51.992;8.648;2023-09-30T00:20:48;101066.50;;;13.08
82297;BMP280;71899;51.992;8.648;2023-09-30T00:23:13;101067.88;;;13.00
82297;BMP280;71899;51.992;8.648;2023-09-30T00:25:38;101070.94;;;12.92
82297;BMP280;71899;51.992;8.648;2023-09-30T00:28:04;101063.25;;;12.89
82297;BMP280;71899;51.992;8.648;2023-09-30T00:30:30;101075.09;;;12.96
82297;BMP280;71899;51.992;8.648;2023-09-30T00:32:55;101075.91;;;12.82
82297;BMP280;71899;51.992;8.648;2023-09-30T00:35:20;101083.78;;;12.82
82297;BMP280;71899;51.992;8.648;2023-09-30T00:37:46;101083.09;;;12.95
82297;BMP280;71899;51.992;8.648;2023-09-30T00:40:11;101083.84;;;12.81
82297;BMP280;71899;51.992;8.648;2023-09-30T00:42:40;101083.13;;;12.63
82297;BMP280;71899;51.992;8.648;2023-09-30T00:45:07;101079.81;;;12.75
82297;BMP280;71899;51.992;8.648;2023-09-30T00:47:35;101087.75;;;12.74
82297;BMP280;71899;51.992;8.648;2023-09-30T00:50:02;101097.25;;;12.76
82297;BMP280;71899;51.992;8.648;2023-09-30T00:52:29;101087.50;;;12.78
82297;BMP280;71899;51.992;8.648;2023-09-30T00:54:55;101094.47;;;12.79
82297;BMP280;71899;51.992;8.648;2023-09-30T00:57:21;101099.41;;;12.70
82297;BMP280;71899;51.992;8.648;2023-09-30T00:59:47;101096.97;;;12.81
82297;BMP280;71899;51.992;8.648;2023-09-30T01:02:15;101097.81;;;12.81
82297;BMP280;71899;51.992;8.648;2023-09-30T01:04:41;101096.47;;;12.90
82297;BMP280;71899;51.992;8.648;2023-09-30T01:07:07;101093.44;;;12.82
82297;BMP280;71899;51.992;8.648;2023-09-30T01:09:34;101085.66;;;12.80
82297;BMP280;71899;51.992;8.648;2023-09-30T01:11:59;101087.44;;;12.80
82297;BMP280;71899;51.992;8.648;2023-09-30T01:14:30;101090.13;;;12.78
82297;BMP280;71899;51.992;8.648;2023-09-30T01:16:56;101082.19;;;12.80
82297;BMP280;71899;51.992;8.648;2023-09-30T01:19:22;101083.72;;;12.84
82297;BMP280;71899;51.992;8.648;2023-09-30T01:21:54;101084.31;;;12.73
82297;BMP280;71899;51.992;8.648;2023-09-30T01:24:21;101087.06;;;12.86
82297;BMP280;71899;51.992;8.648;2023-09-30T01:26:47;101079.97;;;13.02
82297;BMP280;71899;51.992;8.648;2023-09-30T01:29:12;101083.44;;;13.03
82297;BMP280;71899;51.992;8.648;2023-09-30T01:31:38;101086.59;;;13.09
82297;BMP280;71899;51.992;8.648;2023-09-30T01:34:04;101080.41;;;13.10
82297;BMP280;71899;51.992;8.648;2023-09-30T01:36:30;101078.56;;;12.97
82297;BMP280;71899;51.992;8.648;2023-09-30T01:38:55;101091.91;;;13.08
82297;BMP280;71899;51.992;8.648;2023-09-30T01:41:21;101089.63;;;13.17
82297;BMP280;71899;51.992;8.648;2023-09-30T01:43:47;101088.53;;;13.35
82297;BMP280;71899;51.992;8.648;2023-09-30T01:46:13;101081.75;;;13.31
82297;BMP280;71899;51.992;8.648;2023-09-30T01:48:39;101085.34;;;13.30
82297;BMP280;71899;51.992;8.648;2023-09-30T01:51:05;101086.16;;;13.31
82297;BMP280;71899;51.992;8.648;2023-09-30T01:53:32;101089.81;;;13.28
82297;BMP280;71899;51.992;8.648;2023-09-30T01:55:57;101090.53;;;13.16
82297;BMP280;71899;51.992;8.648;2023-09-30T01:58:23;101093.69;;;13.23
82297;BMP280;71899;51.992;8.648;2023-09-30T02:00:50;101101.56;;;13.23
82297;BMP280;71899;51.992;8.648;2023-09-30T02:03:15;101093.88;;;13.34
82297;BMP280;71899;51.992;8.648;2023-09-30T02:05:42;101088.97;;;13.28
82297;BMP280;71899;51.992;8.648;2023-09-30T02:08:08;101082.22;;;13.38
82297;BMP280;71899;51.992;8.648;2023-09-30T02:10:33;101081.66;;;13.19
82297;BMP280;71899;51.992;8.648;2023-09-30T02:12:59;101090.03;;;13.39
82297;BMP280;71899;51.992;8.648;2023-09-30T02:15:25;101090.59;;;13.45
82297;BMP280;71899;51.992;8.648;2023-09-30T02:17:50;101092.09;;;13.49
82297;BMP280;71899;51.992;8.648;2023-09-30T02:20:15;101095.47;;;13.36
82297;BMP280;71899;51.992;8.648;2023-09-30T02:22:44;101096.78;;;13.29
82297;BMP280;71899;51.992;8.648;2023-09-30T02:25:12;101103.84;;;13.13
82297;BMP280;71899;51.992;8.648;2023-09-30T02:27:39;101109.09;;;13.13
82297;BMP280;71899;51.992;8.648;2023-09-30T02:30:05;101116.13;;;13.13
82297;BMP280;71899;51.992;8.648;2023-09-30T02:32:31;101119.53;;;13.15
82297;BMP280;71899;51.992;8.648;2023-09-30T02:34:58;101116.66;;;13.19
82297;BMP280;71899;51.992;8.648;2023-09-30T02:37:24;101129.41;;;13.25
82297;BMP280;71899;51.992;8.648;2023-09-30T02:39:50;101120.50;;;13.28
82297;BMP280;71899;51.992;8.648;2023-09-30T02:42:16;101123.97;;;13.28
82297;BMP280;71899;51.992;8.648;2023-09-30T02:44:42;101118.03;;;13.25
82297;BMP280;71899;51.992;8.648;2023-09-30T02:47:08;101114.88;;;13.34
82297;BMP280;71899;51.992;8.648;2023-09-30T02:49:35;101108.97;;;13.30
82297;BMP280;71899;51.992;8.648;2023-09-30T02:52:00;101109.44;;;13.23
82297;BMP280;71899;51.992;8.648;2023-09-30T02:54:26;101110.63;;;13.17
82297;BMP280;71899;51.992;8.648;2023-09-30T02:56:51;101119.94;;;13.23
82297;BMP280;71899;51.992;8.648;2023-09-30T02:59:17;101122.72;;;13.20
82297;BMP280;71899;51.992;8.648;2023-09-30T03:01:44;101119.88;;;13.09
82297;BMP280;71899;51.992;8.648;2023-09-30T03:04:09;101133.69;;;13.12
82297;BMP280;71899;51.992;8.648;2023-09-30T03:06:38;101130.38;;;13.09
82297;BMP280;71899;51.992;8.648;2023-09-30T03:09:04;101130.22;;;13.12
82297;BMP280;71899;51.992;8.648;2023-09-30T03:11:30;101124.72;;;13.01
82297;BMP280;71899;51.992;8.648;2023-09-30T03:13:56;101123.59;;;13.05
82297;BMP280;71899;51.992;8.648;2023-09-30T03:16:22;101125.59;;;12.85
82297;BMP280;71899;51.992;8.648;2023-09-30T03:18:49;101126.84;;;12.94
82297;BMP280;71899;51.992;8.648;2023-09-30T03:21:14;101114.34;;;12.83
82297;BMP280;71899;51.992;8.648;2023-09-30T03:23:40;101103.66;;;12.86
82297;BMP280;71899;51.992;8.648;2023-09-30T03:26:06;101105.84;;;12.94
82297;BMP280;71899;51.992;8.648;2023-09-30T03:28:35;101100.13;;;12.87
82297;BMP280;71899;51.992;8.648;2023-09-30T03:31:01;101093.66;;;12.93
82297;BMP280;71899;51.992;8.648;2023-09-30T03:33:26;101104.28;;;12.76
82297;BMP280;71899;51.992;8.648;2023-09-30T03:35:51;101101.22;;;12.83
82297;BMP280;71899;51.992;8.648;2023-09-30T03:38:17;101112.38;;;12.87
82297;BMP280;71899;51.992;8.648;2023-09-30T03:40:45;101115.00;;;12.87
82297;BMP280;71899;51.992;8.648;2023-09-30T03:43:13;101126.03;;;12.78
82297;BMP280;71899;51.992;8.648;2023-09-30T03:45:39;101135.47;;;12.66
82297;BMP280;71899;51.992;8.648;2023-09-30T03:48:07;101129.28;;;12.52
82297;BMP280;71899;51.992;8.648;2023-09-30T03:50:32;101132.25;;;12.46
82297;BMP280;71899;51.992;8.648;2023-09-30T03:53:05;101117.03;;;12.36
82297;BMP280;71899;51.992;8.648;2023-09-30T03:55:32;101113.81;;;12.31
82297;BMP280;71899;51.992;8.648;2023-09-30T03:57:58;101117.09;;;12.35
82297;BMP280;71899;51.992;8.648;2023-09-30T04:00:24;101117.09;;;12.35
82297;BMP280;71899;51.992;8.648;2023-09-30T04:02:50;101115.94;;;12.40
82297;BMP280;71899;51.992;8.648;2023-09-30T04:05:20;101122.94;;;12.40
82297;BMP280;71899;51.992;8.648;2023-09-30T04:07:49;101121.63;;;12.63
82297;BMP280;71899;51.992;8.648;2023-09-30T04:10:14;101121.25;;;12.55
82297;BMP280;71899;51.992;8.648;2023-09-30T04:12:40;101132.59;;;12.55
82297;BMP280;71899;51.992;8.648;2023-09-30T04:15:05;101122.63;;;12.30
82297;BMP280;71899;51.992;8.648;2023-09-30T04:17:31;101122.75;;;12.27
82297;BMP280;71899;51.992;8.648;2023-09-30T04:19:57;101116.16;;;12.20
82297;BMP280;71899;51.992;8.648;2023-09-30T04:22:22;101115.75;;;12.28
82297;BMP280;71899;51.992;8.648;2023-09-30T04:24:49;101120.91;;;12.45
82297;BMP280;71899;51.992;8.648;2023-09-30T04:27:15;101120.03;;;12.60
82297;BMP280;71899;51.992;8.648;2023-09-30T04:29:41;101121.25;;;12.55
82297;BMP280;71899;51.992;8.648;2023-09-30T04:32:07;101120.13;;;12.27
82297;BMP280;71899;51.992;8.648;2023-09-30T04:34:32;101132.44;;;12.27
82297;BMP280;71899;51.992;8.648;2023-09-30T04:36:57;101124.72;;;12.24
82297;BMP280;71899;51.992;8.648;2023-09-30T04:39:24;101121.66;;;12.47
82297;BMP280;71899;51.992;8.648;2023-09-30T04:41:50;101121.66;;;12.31
82297;BMP280;71899;51.992;8.648;2023-09-30T04:44:15;101124.63;;;12.25
82297;BMP280;71899;51.992;8.648;2023-09-30T04:46:41;101123.88;;;12.55
82297;BMP280;71899;51.992;8.648;2023-09-30T04:49:11;101139.19;;;12.47
82297;BMP280;71899;51.992;8.648;2023-09-30T04:51:36;101136.06;;;12.40
82297;BMP280;71899;51.992;8.648;2023-09-30T04:54:02;101132.91;;;12.49
82297;BMP280;71899;51.992;8.648;2023-09-30T04:56:29;101133.94;;;12.62
82297;BMP280;71899;51.992;8.648;2023-09-30T04:58:54;101129.00;;;12.56
82297;BMP280;71899;51.992;8.648;2023-09-30T05:01:19;101131.81;;;12.53
82297;BMP280;71899;51.992;8.648;2023-09-30T05:03:45;101117.25;;;12.63
82297;BMP280;71899;51.992;8.648;2023-09-30T05:06:13;101127.41;;;12.69
82297;BMP280;71899;51.992;8.648;2023-09-30T05:08:39;101127.84;;;12.62
82297;BMP280;71899;51.992;8.648;2023-09-30T05:11:04;101134.19;;;12.73
82297;BMP280;71899;51.992;8.648;2023-09-30T05:13:30;101129.13;;;12.84
82297;BMP280;71899;51.992;8.648;2023-09-30T05:15:55;101136.88;;;12.87
82297;BMP280;71899;51.992;8.648;2023-09-30T05:18:20;101147.69;;;12.81
82297;BMP280;71899;51.992;8.648;2023-09-30T05:20:49;101142.16;;;13.02
82297;BMP280;71899;51.992;8.648;2023-09-30T05:23:14;101139.75;;;12.83
82297;BMP280;71899;51.992;8.648;2023-09-30T05:25:40;101141.09;;;12.74
82297;BMP280;71899;51.992;8.648;2023-09-30T05:28:05;101151.59;;;12.90
82297;BMP280;71899;51.992;8.648;2023-09-30T05:30:34;101161.91;;;12.77
82297;BMP280;71899;51.992;8.648;2023-09-30T05:33:00;101152.19;;;12.79
82297;BMP280;71899;51.992;8.648;2023-09-30T05:35:25;101139.44;;;12.73
82297;BMP280;71899;51.992;8.648;2023-09-30T05:37:51;101145.84;;;12.83
82297;BMP280;71899;51.992;8.648;2023-09-30T05:40:18;101141.94;;;12.75
82297;BMP280;71899;51.992;8.648;2023-09-30T05:42:48;101136.94;;;12.86
82297;BMP280;71899;51.992;8.648;2023-09-30T05:45:16;101142.19;;;12.86
82297;BMP280;71899;51.992;8.648;2023-09-30T05:47:42;101146.28;;;13.06
82297;BMP280;71899;51.992;8.648;2023-09-30T05:50:08;101149.44;;;13.12
82297;BMP280;71899;51.992;8.648;2023-09-30T05:52:41;101151.81;;;13.01
82297;BMP280;71899;51.992;8.648;2023-09-30T05:55:07;101150.84;;;13.02
82297;BMP280;71899;51.992;8.648;2023-09-30T05:57:32;101153.94;;;12.95
82297;BMP280;71899;51.992;8.648;2023-09-30T05:59:59;101171.53;;;12.92
82297;BMP280;71899;51.992;8.648;2023-09-30T06:02:24;101172.66;;;12.88
82297;BMP280;71899;51.992;8.648;2023-09-30T06:04:50;101182.16;;;12.91
82297;BMP280;71899;51.992;8.648;2023-09-30T06:07:16;101186.63;;;12.89
82297;BMP280;71899;51.992;8.648;2023-09-30T06:09:41;101185.94;;;12.85
82297;BMP280;71899;51.992;8.648;2023-09-30T06:12:06;101181.91;;;12.80
82297;BMP280;71899;51.992;8.648;2023-09-30T06:14:32;101185.94;;;12.85
82297;BMP280;71899;51.992;8.648;2023-09-30T06:16:58;101183.50;;;12.82
82297;BMP280;71899;51.992;8.648;2023-09-30T06:19:24;101201.88;;;12.98
82297;BMP280;71899;51.992;8.648;2023-09-30T06:21:51;101192.78;;;12.88
82297;BMP280;71899;51.992;8.648;2023-09-30T06:24:17;101195.16;;;12.92
82297;BMP280;71899;51.992;8.648;2023-09-30T06:26:45;101193.75;;;12.87
82297;BMP280;71899;51.992;8.648;2023-09-30T06:29:10;101192.78;;;12.88
82297;BMP280;71899;51.992;8.648;2023-09-30T06:31:35;101204.47;;;13.14
82297;BMP280;71899;51.992;8.648;2023-09-30T06:34:00;101203.09;;;13.07
82297;BMP280;71899;51.992;8.648;2023-09-30T06:36:26;101199.75;;;13.05
82297;BMP280;71899;51.992;8.648;2023-09-30T06:38:51;101200.84;;;13.01
82297;BMP280;71899;51.992;8.648;2023-09-30T06:41:17;101201.34;;;13.23
82297;BMP280;71899;51.992;8.648;2023-09-30T06:43:43;101208.94;;;13.71
82297;BMP280;71899;51.992;8.648;2023-09-30T06:46:09;101208.31;;;14.10
82297;BMP280;71899;51.992;8.648;2023-09-30T06:48:35;101208.31;;;14.10
82297;BMP280;71899;51.992;8.648;2023-09-30T06:51:01;101208.28;;;14.67
82297;BMP280;71899;51.992;8.648;2023-09-30T06:53:27;101203.66;;;15.24
82297;BMP280;71899;51.992;8.648;2023-09-30T06:55:52;101200.09;;;15.64
82297;BMP280;71899;51.992;8.648;2023-09-30T06:58:18;101210.59;;;16.40
82297;BMP280;71899;51.992;8.648;2023-09-30T07:00:50;101212.56;;;16.49
82297;BMP280;71899;51.992;8.648;2023-09-30T07:03:16;101201.25;;;16.72
82297;BMP280;71899;51.992;8.648;2023-09-30T07:05:42;101208.47;;;17.29
82297;BMP280;71899;51.992;8.648;2023-09-30T07:08:09;101200.91;;;17.70
82297;BMP280;71899;51.992;8.648;2023-09-30T07:10:34;101203.84;;;17.90
82297;BMP280;71899;51.992;8.648;2023-09-30T07:13:02;101205.28;;;18.16
82297;BMP280;71899;51.992;8.648;2023-09-30T07:15:28;101210.47;;;18.06
82297;BMP280;71899;51.992;8.648;2023-09-30T07:17:53;101216.38;;;19.08
82297;BMP280;71899;51.992;8.648;2023-09-30T07:20:18;101224.66;;;19.15
82297;BMP280;71899;51.992;8.648;2023-09-30T07:22:45;101218.13;;;19.71
82297;BMP280;71899;51.992;8.648;2023-09-30T07:25:10;101229.44;;;19.94
82297;BMP280;71899;51.992;8.648;2023-09-30T07:27:35;101238.16;;;20.06
82297;BMP280;71899;51.992;8.648;2023-09-30T07:30:01;101239.59;;;20.10
82297;BMP280;71899;51.992;8.648;2023-09-30T07:32:26;101246.88;;;19.66
82297;BMP280;71899;51.992;8.648;2023-09-30T07:34:52;101247.44;;;20.91
82297;BMP280;71899;51.992;8.648;2023-09-30T07:37:17;101242.00;;;21.02
82297;BMP280;71899;51.992;8.648;2023-09-30T07:39:44;101237.56;;;21.60
82297;BMP280;71899;51.992;8.648;2023-09-30T07:42:09;101241.78;;;22.19
82297;BMP280;71899;51.992;8.648;2023-09-30T07:44:35;101236.97;;;21.95
82297;BMP280;71899;51.992;8.648;2023-09-30T07:47:03;101241.06;;;21.70
82297;BMP280;71899;51.992;8.648;2023-09-30T07:49:29;101244.97;;;22.32
82297;BMP280;71899;51.992;8.648;2023-09-30T07:51:54;101253.50;;;21.99
82297;BMP280;71899;51.992;8.648;2023-09-30T07:54:20;101248.31;;;22.34
82297;BMP280;71899;51.992;8.648;2023-09-30T07:56:45;101248.81;;;22.84
82297;BMP280;71899;51.992;8.648;2023-09-30T07:59:11;101247.84;;;23.03
82297;BMP280;71899;51.992;8.648;2023-09-30T08:01:36;101252.50;;;23.01
82297;BMP280;71899;51.992;8.648;2023-09-30T08:04:02;101258.38;;;22.40
82297;BMP280;71899;51.992;8.648;2023-09-30T08:06:28;101261.56;;;22.16
82297;BMP280;71899;51.992;8.648;2023-09-30T08:08:53;101257.25;;;22.06
82297;BMP280;71899;51.992;8.648;2023-09-30T08:11:20;101266.84;;;21.41
82297;BMP280;71899;51.992;8.648;2023-09-30T08:13:46;101273.91;;;20.93
82297;BMP280;71899;51.992;8.648;2023-09-30T08:16:11;101270.75;;;19.87
82297;BMP280;71899;51.992;8.648;2023-09-30T08:18:36;101269.22;;;19.21
82297;BMP280;71899;51.992;8.648;2023-09-30T08:21:02;101274.28;;;18.48
82297;BMP280;71899;51.992;8.648;2023-09-30T08:23:27;101279.25;;;17.95
82297;BMP280;71899;51.992;8.648;2023-09-30T08:25:52;101281.50;;;17.77
82297;BMP280;71899;51.992;8.648;2023-09-30T08:28:19;101290.09;;;17.57
82297;BMP280;71899;51.992;8.648;2023-09-30T08:30:44;101296.31;;;17.32
82297;BMP280;71899;51.992;8.648;2023-09-30T08:33:10;101294.84;;;17.28
82297;BMP280;71899;51.992;8.648;2023-09-30T08:35:38;101287.88;;;17.51
82297;BMP280;71899;51.992;8.648;2023-09-30T08:38:04;101294.72;;;17.77
82297;BMP280;71899;51.992;8.648;2023-09-30T08:40:30;101299.56;;;17.83
82297;BMP280;71899;51.992;8.648;2023-09-30T08:42:56;101294.31;;;17.60
82297;BMP280;71899;51.992;8.648;2023-09-30T08:45:21;101298.03;;;17.57
82297;BMP280;71899;51.992;8.648;2023-09-30T08:47:46;101302.16;;;17.49
82297;BMP280;71899;51.992;8.648;2023-09-30T08:50:12;101304.50;;;17.88
82297;BMP280;71899;51.992;8.648;2023-09-30T08:52:40;101305.31;;;17.77
82297;BMP280;71899;51.992;8.648;2023-09-30T08:55:07;101294.84;;;17.76
82297;BMP280;71899;51.992;8.648;2023-09-30T08:57:36;101304.88;;;17.60
82297;BMP280;71899;51.992;8.648;2023-09-30T09:00:02;101305.09;;;17.92
82297;BMP280;71899;51.992;8.648;2023-09-30T09:02:27;101307.66;;;17.93
82297;BMP280;71899;51.992;8.648;2023-09-30T09:04:54;101306.47;;;18.19
82297;BMP280;71899;51.992;8.648;2023-09-30T09:07:19;101303.00;;;18.19
82297;BMP280;71899;51.992;8.648;2023-09-30T09:10:07;101305.78;;;17.71
82297;BMP280;71899;51.992;8.648;2023-09-30T09:12:34;101302.00;;;18.09
82297;BMP280;71899;51.992;8.648;2023-09-30T09:14:59;101303.50;;;17.78
82297;BMP280;71899;51.992;8.648;2023-09-30T09:17:39;101298.38;;;17.99
82297;BMP280;71899;51.992;8.648;2023-09-30T09:20:06;101295.81;;;18.32
82297;BMP280;71899;51.992;8.648;2023-09-30T09:22:42;101300.41;;;18.63
82297;BMP280;71899;51.992;8.648;2023-09-30T09:25:08;101298.47;;;18.76
82297;BMP280;71899;51.992;8.648;2023-09-30T09:27:34;101295.34;;;18.94
82297;BMP280;71899;51.992;8.648;2023-09-30T09:33:03;101293.72;;;19.13
82297;BMP280;71899;51.992;8.648;2023-09-30T09:35:31;101301.75;;;19.23
82297;BMP280;71899;51.992;8.648;2023-09-30T09:38:05;101298.59;;;19.40
82297;BMP280;71899;51.992;8.648;2023-09-30T09:40:35;101303.56;;;19.22
82297;BMP280;71899;51.992;8.648;2023-09-30T09:43:02;101299.69;;;19.26
82297;BMP280;71899;51.992;8.648;2023-09-30T09:45:32;101296.50;;;19.55
82297;BMP280;71899;51.992;8.648;2023-09-30T09:47:58;101304.09;;;19.48
82297;BMP280;71899;51.992;8.648;2023-09-30T09:50:24;101299.41;;;19.41
82297;BMP280;71899;51.992;8.648;2023-09-30T09:52:51;101298.84;;;19.69
82297;BMP280;71899;51.992;8.648;2023-09-30T09:55:18;101292.66;;;19.48
82297;BMP280;71899;51.992;8.648;2023-09-30T09:57:45;101283.47;;;19.52
82297;BMP280;71899;51.992;8.648;2023-09-30T10:00:16;101275.72;;;19.80
82297;BMP280;71899;51.992;8.648;2023-09-30T10:02:44;101286.88;;;19.74
82297;BMP280;71899;51.992;8.648;2023-09-30T10:05:11;101280.84;;;20.14
82297;BMP280;71899;51.992;8.648;2023-09-30T10:07:41;101279.41;;;20.10
82297;BMP280;71899;51.992;8.648;2023-09-30T10:10:12;101287.00;;;19.94
82297;BMP280;71899;51.992;8.648;2023-09-30T10:12:38;101276.63;;;19.70
82297;BMP280;71899;51.992;8.648;2023-09-30T10:20:27;101278.66;;;20.89
82297;BMP280;71899;51.992;8.648;2023-09-30T10:23:18;101272.09;;;20.93
82297;BMP280;71899;51.992;8.648;2023-09-30T10:25:48;101277.34;;;20.74
82297;BMP280;71899;51.992;8.648;2023-09-30T10:28:39;101283.19;;;21.08
82297;BMP280;71899;51.992;8.648;2023-09-30T10:31:18;101288.53;;;21.17
82297;BMP280;71899;51.992;8.648;2023-09-30T10:36:32;101291.09;;;20.89
82297;BMP280;71899;51.992;8.648;2023-09-30T10:38:59;101304.31;;;20.30
82297;BMP280;71899;51.992;8.648;2023-09-30T10:49:49;101284.47;;;19.92
82297;BMP280;71899;51.992;8.648;2023-09-30T10:52:22;101287.56;;;19.76
82297;BMP280;71899;51.992;8.648;2023-09-30T10:54:50;101287.56;;;19.76
82297;BMP280;71899;51.992;8.648;2023-09-30T10:57:36;101278.09;;;20.25
82297;BMP280;71899;51.992;8.648;2023-09-30T11:00:12;101276.31;;;20.65
82297;BMP280;71899;51.992;8.648;2023-09-30T11:02:51;101277.66;;;20.81
82297;BMP280;71899;51.992;8.648;2023-09-30T11:05:18;101284.59;;;20.32
82297;BMP280;71899;51.992;8.648;2023-09-30T11:07:48;101284.00;;;20.99
82297;BMP280;71899;51.992;8.648;2023-09-30T11:10:16;101276.06;;;21.37
82297;BMP280;71899;51.992;8.648;2023-09-30T11:12:55;101279.56;;;21.66
82297;BMP280;71899;51.992;8.648;2023-09-30T11:15:21;101279.16;;;21.52
82297;BMP280;71899;51.992;8.648;2023-09-30T11:17:46;101278.88;;;21.93
82297;BMP280;71899;51.992;8.648;2023-09-30T11:20:12;101283.63;;;21.90
82297;BMP280;71899;51.992;8.648;2023-09-30T11:22:37;101295.13;;;21.33
82297;BMP280;71899;51.992;8.648;2023-09-30T11:25:04;101275.06;;;22.05
82297;BMP280;71899;51.992;8.648;2023-09-30T11:27:30;101280.47;;;22.23
82297;BMP280;71899;51.992;8.648;2023-09-30T11:29:56;101278.53;;;22.15
82297;BMP280;71899;51.992;8.648;2023-09-30T11:32:27;101277.84;;;22.13
82297;BMP280;71899;51.992;8.648;2023-09-30T11:34:53;101283.34;;;22.02
82297;BMP280;71899;51.992;8.648;2023-09-30T11:37:19;101277.88;;;21.85
82297;BMP280;71899;51.992;8.648;2023-09-30T11:39:44;101281.75;;;22.19
82297;BMP280;71899;51.992;8.648;2023-09-30T11:42:17;101277.22;;;22.39
82297;BMP280;71899;51.992;8.648;2023-09-30T11:44:46;101271.28;;;22.45
82297;BMP280;71899;51.992;8.648;2023-09-30T11:47:13;101265.50;;;22.86
82297;BMP280;71899;51.992;8.648;2023-09-30T11:49:41;101267.03;;;22.89
82297;BMP280;71899;51.992;8.648;2023-09-30T11:52:13;101262.03;;;23.03
82297;BMP280;71899;51.992;8.648;2023-09-30T11:54:42;101258.19;;;22.61
82297;BMP280;71899;51.992;8.648;2023-09-30T11:57:12;101256.13;;;22.45
82297;BMP280;71899;51.992;8.648;2023-09-30T11:59:40;101255.72;;;22.77
82297;BMP280;71899;51.992;8.648;2023-09-30T12:02:09;101252.78;;;23.33
82297;BMP280;71899;51.992;8.648;2023-09-30T12:04:38;101259.78;;;23.61
82297;BMP280;71899;51.992;8.648;2023-09-30T12:07:04;101249.72;;;23.81
82297;BMP280;71899;51.992;8.648;2023-09-30T12:09:32;101252.38;;;24.25
82297;BMP280;71899;51.992;8.648;2023-09-30T12:11:57;101244.63;;;24.13
82297;BMP280;71899;51.992;8.648;2023-09-30T12:14:26;101240.50;;;24.01
82297;BMP280;71899;51.992;8.648;2023-09-30T12:16:51;101242.38;;;23.40
82297;BMP280;71899;51.992;8.648;2023-09-30T12:19:17;101240.50;;;23.40
82297;BMP280;71899;51.992;8.648;2023-09-30T12:21:43;101229.03;;;23.40
82297;BMP280;71899;51.992;8.648;2023-09-30T12:24:12;101236.63;;;22.54
82297;BMP280;71899;51.992;8.648;2023-09-30T12:26:42;101234.97;;;22.07
82297;BMP280;71899;51.992;8.648;2023-09-30T12:29:07;101233.03;;;21.99
82297;BMP280;71899;51.992;8.648;2023-09-30T12:31:34;101230.66;;;21.96
82297;BMP280;71899;51.992;8.648;2023-09-30T12:33:59;101228.63;;;21.13
82297;BMP280;71899;51.992;8.648;2023-09-30T12:36:25;101221.91;;;21.29
82297;BMP280;71899;51.992;8.648;2023-09-30T12:38:50;101236.44;;;20.56
82297;BMP280;71899;51.992;8.648;2023-09-30T12:41:15;101223.56;;;20.21
82297;BMP280;71899;51.992;8.648;2023-09-30T12:43:41;101231.59;;;20.00
82297;BMP280;71899;51.992;8.648;2023-09-30T12:46:08;101230.16;;;20.47
82297;BMP280;71899;51.992;8.648;2023-09-30T12:48:33;101218.41;;;21.28
82297;BMP280;71899;51.992;8.648;2023-09-30T12:50:59;101209.97;;;21.61
82297;BMP280;71899;51.992;8.648;2023-09-30T12:53:24;101212.16;;;21.95
82297;BMP280;71899;51.992;8.648;2023-09-30T12:55:49;101203.78;;;22.81
82297;BMP280;71899;51.992;8.648;2023-09-30T12:58:15;101204.97;;;22.87
82297;BMP280;71899;51.992;8.648;2023-09-30T13:00:40;101201.75;;;22.38
82297;BMP280;71899;51.992;8.648;2023-09-30T13:03:05;101199.63;;;22.14
82297;BMP280;71899;51.992;8.648;2023-09-30T13:05:33;101201.53;;;21.66
82297;BMP280;71899;51.992;8.648;2023-09-30T13:07:58;101195.66;;;21.72
82297;BMP280;71899;51.992;8.648;2023-09-30T13:10:23;101198.41;;;21.14
82297;BMP280;71899;51.992;8.648;2023-09-30T13:12:49;101207.00;;;20.68
82297;BMP280;71899;51.992;8.648;2023-09-30T13:15:19;101211.53;;;20.17
82297;BMP280;71899;51.992;8.648;2023-09-30T13:17:45;101207.78;;;19.89
82297;BMP280;71899;51.992;8.648;2023-09-30T13:20:11;101210.63;;;19.56
82297;BMP280;71899;51.992;8.648;2023-09-30T13:22:38;101205.88;;;19.39
82297;BMP280;71899;51.992;8.648;2023-09-30T13:25:07;101205.44;;;19.75
82297;BMP280;71899;51.992;8.648;2023-09-30T13:27:38;101196.53;;;20.06
82297;BMP280;71899;51.992;8.648;2023-09-30T13:30:05;101205.31;;;20.27
82297;BMP280;71899;51.992;8.648;2023-09-30T13:32:33;101200.09;;;20.66
82297;BMP280;71899;51.992;8.648;2023-09-30T13:35:03;101198.75;;;20.81
82297;BMP280;71899;51.992;8.648;2023-09-30T13:37:31;101190.66;;;20.92
82297;BMP280;71899;51.992;8.648;2023-09-30T13:40:02;101183.97;;;21.36
82297;BMP280;71899;51.992;8.648;2023-09-30T13:42:29;101182.38;;;21.53
82297;BMP280;71899;51.992;8.648;2023-09-30T13:44:55;101179.41;;;21.65
82297;BMP280;71899;51.992;8.648;2023-09-30T13:47:23;101177.50;;;21.58
82297;BMP280;71899;51.992;8.648;2023-09-30T13:49:48;101182.81;;;21.58
82297;BMP280;71899;51.992;8.648;2023-09-30T13:52:14;101181.41;;;21.54
82297;BMP280;71899;51.992;8.648;2023-09-30T13:54:39;101186.63;;;21.17
82297;BMP280;71899;51.992;8.648;2023-09-30T13:57:05;101179.16;;;21.59
82297;BMP280;71899;51.992;8.648;2023-09-30T13:59:34;101181.06;;;21.76
82297;BMP280;71899;51.992;8.648;2023-09-30T14:01:59;101171.66;;;21.91
82297;BMP280;71899;51.992;8.648;2023-09-30T14:04:25;101170.63;;;21.65
82297;BMP280;71899;51.992;8.648;2023-09-30T14:06:50;101170.41;;;21.76
82297;BMP280;71899;51.992;8.648;2023-09-30T14:09:16;101170.31;;;21.58
82297;BMP280;71899;51.992;8.648;2023-09-30T14:11:42;101177.03;;;21.62
82297;BMP280;71899;51.992;8.648;2023-09-30T14:14:07;101175.28;;;21.34